sensor_id;sensor_type;location;lat;lon;timestamp;P1;durP1;ratioP1;P2;durP2;ratioP2
305;SDS011;137;48.578;9.180;2022-08-27T00:02:27;6.70;;;6.10;;
305;SDS011;137;48.578;9.180;2022-08-27T00:04:53;7.00;;;6.40;;
305;SDS011;137;48.578;9.180;2022-08-27T00:07:20;7.17;;;6.37;;
305;SDS011;137;48.578;9.180;2022-08-27T00:09:47;7.03;;;6.33;;
305;SDS011;137;48.578;9.180;2022-08-27T00:12:14;8.57;;;6.10;;
305;SDS011;137;48.578;9.180;2022-08-27T00:14:42;7.63;;;6.10;;
305;SDS011;137;48.578;9.180;2022-08-27T00:17:09;7.50;;;6.10;;
305;SDS011;137;48.578;9.180;2022-08-27T00:19:37;12.53;;;6.63;;
305;SDS011;137;48.578;9.180;2022-08-27T00:22:04;9.33;;;7.00;;
305;SDS011;137;48.578;9.180;2022-08-27T00:24:32;8.73;;;7.83;;
305;SDS011;137;48.578;9.180;2022-08-27T00:26:59;7.17;;;6.47;;
305;SDS011;137;48.578;9.180;2022-08-27T00:29:26;10.30;;;7.13;;
305;SDS011;137;48.578;9.180;2022-08-27T00:31:54;7.90;;;7.10;;
305;SDS011;137;48.578;9.180;2022-08-27T00:34:21;9.80;;;8.13;;
305;SDS011;137;48.578;9.180;2022-08-27T00:36:48;9.67;;;8.67;;
305;SDS011;137;48.578;9.180;2022-08-27T00:39:15;9.50;;;8.20;;
305;SDS011;137;48.578;9.180;2022-08-27T00:41:42;11.40;;;9.70;;
305;SDS011;137;48.578;9.180;2022-08-27T00:44:09;9.70;;;8.80;;
305;SDS011;137;48.578;9.180;2022-08-27T00:46:38;9.80;;;9.00;;
305;SDS011;137;48.578;9.180;2022-08-27T00:49:11;10.70;;;9.60;;
305;SDS011;137;48.578;9.180;2022-08-27T00:51:42;10.47;;;9.37;;
305;SDS011;137;48.578;9.180;2022-08-27T00:54:15;9.57;;;8.67;;
305;SDS011;137;48.578;9.180;2022-08-27T00:56:42;10.17;;;9.17;;
305;SDS011;137;48.578;9.180;2022-08-27T00:59:10;10.40;;;9.30;;
305;SDS011;137;48.578;9.180;2022-08-27T01:01:39;9.13;;;8.23;;
305;SDS011;137;48.578;9.180;2022-08-27T01:04:28;10.67;;;9.63;;
305;SDS011;137;48.578;9.180;2022-08-27T01:06:57;10.27;;;9.37;;
305;SDS011;137;48.578;9.180;2022-08-27T01:09:26;11.10;;;10.00;;
305;SDS011;137;48.578;9.180;2022-08-27T01:11:54;10.47;;;8.13;;
305;SDS011;137;48.578;9.180;2022-08-27T01:14:22;10.23;;;8.70;;
305;SDS011;137;48.578;9.180;2022-08-27T01:16:50;9.27;;;8.37;;
305;SDS011;137;48.578;9.180;2022-08-27T01:19:21;9.03;;;8.20;;
305;SDS011;137;48.578;9.180;2022-08-27T01:21:59;9.67;;;8.87;;
305;SDS011;137;48.578;9.180;2022-08-27T01:24:34;8.77;;;7.97;;
305;SDS011;137;48.578;9.180;2022-08-27T01:27:04;10.20;;;9.10;;
305;SDS011;137;48.578;9.180;2022-08-27T01:29:33;9.97;;;8.90;;
305;SDS011;137;48.578;9.180;2022-08-27T01:32:05;8.67;;;7.90;;
305;SDS011;137;48.578;9.180;2022-08-27T01:34:35;10.80;;;8.77;;
305;SDS011;137;48.578;9.180;2022-08-27T01:37:03;9.60;;;8.70;;
305;SDS011;137;48.578;9.180;2022-08-27T01:39:30;8.50;;;7.67;;
305;SDS011;137;48.578;9.180;2022-08-27T01:42:02;10.50;;;8.83;;
305;SDS011;137;48.578;9.180;2022-08-27T01:44:40;9.07;;;8.20;;
305;SDS011;137;48.578;9.180;2022-08-27T01:47:12;10.43;;;9.47;;
305;SDS011;137;48.578;9.180;2022-08-27T01:49:39;8.67;;;7.87;;
305;SDS011;137;48.578;9.180;2022-08-27T01:52:06;9.53;;;8.30;;
305;SDS011;137;48.578;9.180;2022-08-27T01:54:33;9.20;;;8.30;;
305;SDS011;137;48.578;9.180;2022-08-27T01:57:01;8.93;;;8.17;;
305;SDS011;137;48.578;9.180;2022-08-27T01:59:29;9.43;;;8.63;;
305;SDS011;137;48.578;9.180;2022-08-27T02:01:55;9.77;;;8.97;;
305;SDS011;137;48.578;9.180;2022-08-27T02:04:23;11.30;;;9.70;;
305;SDS011;137;48.578;9.180;2022-08-27T02:06:50;8.50;;;7.80;;
305;SDS011;137;48.578;9.180;2022-08-27T02:09:17;9.20;;;8.30;;
305;SDS011;137;48.578;9.180;2022-08-27T02:11:44;8.90;;;8.10;;
305;SDS011;137;48.578;9.180;2022-08-27T02:14:12;9.57;;;8.57;;
305;SDS011;137;48.578;9.180;2022-08-27T02:16:40;9.00;;;8.30;;
305;SDS011;137;48.578;9.180;2022-08-27T02:19:07;9.57;;;8.67;;
305;SDS011;137;48.578;9.180;2022-08-27T02:21:34;7.30;;;6.70;;
305;SDS011;137;48.578;9.180;2022-08-27T02:24:01;8.80;;;7.90;;
305;SDS011;137;48.578;9.180;2022-08-27T02:26:29;10.27;;;9.30;;
305;SDS011;137;48.578;9.180;2022-08-27T02:28:56;9.07;;;8.27;;
305;SDS011;137;48.578;9.180;2022-08-27T02:31:25;10.20;;;9.27;;
305;SDS011;137;48.578;9.180;2022-08-27T02:33:52;9.83;;;8.93;;
305;SDS011;137;48.578;9.180;2022-08-27T02:36:19;11.70;;;10.50;;
305;SDS011;137;48.578;9.180;2022-08-27T02:38:46;11.63;;;10.30;;
305;SDS011;137;48.578;9.180;2022-08-27T02:41:13;10.53;;;9.43;;
305;SDS011;137;48.578;9.180;2022-08-27T02:43:40;12.77;;;11.37;;
305;SDS011;137;48.578;9.180;2022-08-27T02:46:07;10.60;;;9.70;;
305;SDS011;137;48.578;9.180;2022-08-27T02:48:37;10.80;;;9.80;;
305;SDS011;137;48.578;9.180;2022-08-27T02:51:05;9.80;;;9.00;;
305;SDS011;137;48.578;9.180;2022-08-27T02:53:34;12.87;;;11.67;;
305;SDS011;137;48.578;9.180;2022-08-27T02:56:01;11.53;;;10.33;;
305;SDS011;137;48.578;9.180;2022-08-27T02:58:28;14.20;;;11.90;;
305;SDS011;137;48.578;9.180;2022-08-27T03:00:57;13.40;;;12.20;;
305;SDS011;137;48.578;9.180;2022-08-27T03:03:25;11.53;;;10.43;;
305;SDS011;137;48.578;9.180;2022-08-27T03:05:53;13.30;;;12.10;;
305;SDS011;137;48.578;9.180;2022-08-27T03:08:21;12.67;;;11.47;;
305;SDS011;137;48.578;9.180;2022-08-27T03:10:48;12.67;;;11.57;;
305;SDS011;137;48.578;9.180;2022-08-27T03:13:16;13.97;;;12.87;;
305;SDS011;137;48.578;9.180;2022-08-27T03:15:42;14.17;;;12.47;;
305;SDS011;137;48.578;9.180;2022-08-27T03:18:09;17.73;;;16.03;;
305;SDS011;137;48.578;9.180;2022-08-27T03:20:46;19.97;;;17.97;;
305;SDS011;137;48.578;9.180;2022-08-27T03:23:16;19.40;;;17.57;;
305;SDS011;137;48.578;9.180;2022-08-27T03:25:44;19.67;;;17.70;;
305;SDS011;137;48.578;9.180;2022-08-27T03:28:15;18.40;;;16.60;;
305;SDS011;137;48.578;9.180;2022-08-27T03:30:42;18.27;;;16.47;;
305;SDS011;137;48.578;9.180;2022-08-27T03:33:12;17.93;;;16.20;;
305;SDS011;137;48.578;9.180;2022-08-27T03:35:39;17.03;;;15.50;;
305;SDS011;137;48.578;9.180;2022-08-27T03:38:06;18.23;;;16.63;;
305;SDS011;137;48.578;9.180;2022-08-27T03:40:34;16.20;;;14.67;;
305;SDS011;137;48.578;9.180;2022-08-27T03:43:02;17.23;;;15.63;;
305;SDS011;137;48.578;9.180;2022-08-27T03:45:29;16.73;;;15.03;;
305;SDS011;137;48.578;9.180;2022-08-27T03:47:55;15.93;;;14.00;;
305;SDS011;137;48.578;9.180;2022-08-27T03:50:22;15.60;;;14.30;;
305;SDS011;137;48.578;9.180;2022-08-27T03:52:49;16.23;;;14.63;;
305;SDS011;137;48.578;9.180;2022-08-27T03:55:16;17.33;;;15.63;;
305;SDS011;137;48.578;9.180;2022-08-27T03:57:44;17.23;;;15.40;;
305;SDS011;137;48.578;9.180;2022-08-27T04:00:12;19.43;;;17.40;;
305;SDS011;137;48.578;9.180;2022-08-27T04:02:39;19.37;;;17.43;;
305;SDS011;137;48.578;9.180;2022-08-27T04:05:08;18.67;;;16.77;;
305;SDS011;137;48.578;9.180;2022-08-27T04:07:36;19.00;;;17.10;;
305;SDS011;137;48.578;9.180;2022-08-27T04:10:04;20.00;;;16.60;;
305;SDS011;137;48.578;9.180;2022-08-27T04:12:31;17.97;;;16.27;;
305;SDS011;137;48.578;9.180;2022-08-27T04:15:00;17.10;;;15.50;;
305;SDS011;137;48.578;9.180;2022-08-27T04:17:27;18.13;;;16.43;;
305;SDS011;137;48.578;9.180;2022-08-27T04:19:54;18.10;;;16.50;;
305;SDS011;137;48.578;9.180;2022-08-27T04:22:21;15.70;;;14.30;;
305;SDS011;137;48.578;9.180;2022-08-27T04:24:48;17.47;;;15.80;;
305;SDS011;137;48.578;9.180;2022-08-27T04:27:15;14.90;;;13.50;;
305;SDS011;137;48.578;9.180;2022-08-27T04:29:42;15.37;;;13.87;;
305;SDS011;137;48.578;9.180;2022-08-27T04:32:10;16.40;;;14.90;;
305;SDS011;137;48.578;9.180;2022-08-27T04:34:38;16.80;;;15.30;;
305;SDS011;137;48.578;9.180;2022-08-27T04:37:05;16.70;;;15.10;;
305;SDS011;137;48.578;9.180;2022-08-27T04:39:32;17.70;;;16.10;;
305;SDS011;137;48.578;9.180;2022-08-27T04:41:59;17.40;;;15.87;;
305;SDS011;137;48.578;9.180;2022-08-27T04:44:27;20.13;;;17.00;;
305;SDS011;137;48.578;9.180;2022-08-27T04:46:57;17.83;;;16.13;;
305;SDS011;137;48.578;9.180;2022-08-27T04:49:27;19.70;;;17.80;;
305;SDS011;137;48.578;9.180;2022-08-27T04:51:55;21.13;;;18.93;;
305;SDS011;137;48.578;9.180;2022-08-27T04:54:22;20.20;;;18.37;;
305;SDS011;137;48.578;9.180;2022-08-27T04:56:50;20.37;;;18.40;;
305;SDS011;137;48.578;9.180;2022-08-27T04:59:17;21.23;;;19.30;;
305;SDS011;137;48.578;9.180;2022-08-27T05:01:44;24.47;;;21.97;;
305;SDS011;137;48.578;9.180;2022-08-27T05:04:12;31.23;;;28.13;;
305;SDS011;137;48.578;9.180;2022-08-27T05:06:42;30.97;;;28.10;;
305;SDS011;137;48.578;9.180;2022-08-27T05:09:10;29.17;;;26.37;;
305;SDS011;137;48.578;9.180;2022-08-27T05:11:37;30.73;;;27.60;;
305;SDS011;137;48.578;9.180;2022-08-27T05:14:05;30.67;;;27.50;;
305;SDS011;137;48.578;9.180;2022-08-27T05:16:34;33.60;;;30.50;;
305;SDS011;137;48.578;9.180;2022-08-27T05:19:02;32.10;;;28.90;;
305;SDS011;137;48.578;9.180;2022-08-27T05:21:31;32.20;;;29.30;;
305;SDS011;137;48.578;9.180;2022-08-27T05:24:01;32.53;;;29.53;;
305;SDS011;137;48.578;9.180;2022-08-27T05:26:31;35.93;;;32.53;;
305;SDS011;137;48.578;9.180;2022-08-27T05:28:59;32.17;;;28.80;;
305;SDS011;137;48.578;9.180;2022-08-27T05:31:26;34.07;;;30.77;;
305;SDS011;137;48.578;9.180;2022-08-27T05:33:54;32.63;;;29.57;;
305;SDS011;137;48.578;9.180;2022-08-27T05:36:21;31.93;;;29.00;;
305;SDS011;137;48.578;9.180;2022-08-27T05:38:51;33.67;;;30.33;;
305;SDS011;137;48.578;9.180;2022-08-27T05:41:21;31.27;;;28.17;;
305;SDS011;137;48.578;9.180;2022-08-27T05:43:51;34.83;;;31.47;;
305;SDS011;137;48.578;9.180;2022-08-27T05:46:20;31.70;;;28.60;;
305;SDS011;137;48.578;9.180;2022-08-27T05:48:49;35.87;;;31.90;;
305;SDS011;137;48.578;9.180;2022-08-27T05:51:18;33.90;;;30.30;;
305;SDS011;137;48.578;9.180;2022-08-27T05:53:46;34.27;;;31.03;;
305;SDS011;137;48.578;9.180;2022-08-27T05:56:14;33.90;;;30.27;;
305;SDS011;137;48.578;9.180;2022-08-27T05:58:43;31.43;;;27.60;;
305;SDS011;137;48.578;9.180;2022-08-27T06:01:28;31.50;;;28.40;;
305;SDS011;137;48.578;9.180;2022-08-27T06:03:56;34.30;;;30.90;;
305;SDS011;137;48.578;9.180;2022-08-27T06:06:24;32.70;;;29.30;;
305;SDS011;137;48.578;9.180;2022-08-27T06:08:51;30.90;;;27.70;;
305;SDS011;137;48.578;9.180;2022-08-27T06:11:19;31.90;;;28.63;;
305;SDS011;137;48.578;9.180;2022-08-27T06:13:48;30.30;;;27.30;;
305;SDS011;137;48.578;9.180;2022-08-27T06:16:16;31.70;;;28.60;;
305;SDS011;137;48.578;9.180;2022-08-27T06:18:44;29.30;;;26.63;;
305;SDS011;137;48.578;9.180;2022-08-27T06:21:13;27.00;;;24.50;;
305;SDS011;137;48.578;9.180;2022-08-27T06:23:41;26.27;;;23.87;;
305;SDS011;137;48.578;9.180;2022-08-27T06:26:09;24.43;;;22.17;;
305;SDS011;137;48.578;9.180;2022-08-27T06:28:37;22.67;;;20.67;;
305;SDS011;137;48.578;9.180;2022-08-27T06:31:07;25.10;;;22.90;;
305;SDS011;137;48.578;9.180;2022-08-27T06:33:35;25.90;;;23.30;;
305;SDS011;137;48.578;9.180;2022-08-27T06:36:04;25.27;;;22.90;;
305;SDS011;137;48.578;9.180;2022-08-27T06:38:32;26.00;;;23.60;;
305;SDS011;137;48.578;9.180;2022-08-27T06:41:01;24.67;;;22.30;;
305;SDS011;137;48.578;9.180;2022-08-27T06:43:28;22.73;;;20.60;;
305;SDS011;137;48.578;9.180;2022-08-27T06:45:55;24.77;;;22.37;;
305;SDS011;137;48.578;9.180;2022-08-27T06:48:23;25.20;;;22.87;;
305;SDS011;137;48.578;9.180;2022-08-27T06:50:50;26.80;;;24.10;;
305;SDS011;137;48.578;9.180;2022-08-27T06:53:17;26.07;;;23.50;;
305;SDS011;137;48.578;9.180;2022-08-27T06:55:45;26.43;;;23.87;;
305;SDS011;137;48.578;9.180;2022-08-27T06:58:13;25.30;;;22.80;;
305;SDS011;137;48.578;9.180;2022-08-27T07:00:41;26.07;;;23.77;;
305;SDS011;137;48.578;9.180;2022-08-27T07:03:09;25.60;;;23.17;;
305;SDS011;137;48.578;9.180;2022-08-27T07:05:38;27.70;;;25.07;;
305;SDS011;137;48.578;9.180;2022-08-27T07:08:05;27.00;;;24.57;;
305;SDS011;137;48.578;9.180;2022-08-27T07:10:33;29.07;;;26.00;;
305;SDS011;137;48.578;9.180;2022-08-27T07:13:00;29.00;;;26.37;;
305;SDS011;137;48.578;9.180;2022-08-27T07:15:27;28.63;;;26.17;;
305;SDS011;137;48.578;9.180;2022-08-27T07:17:54;29.33;;;26.80;;
305;SDS011;137;48.578;9.180;2022-08-27T07:20:21;28.37;;;25.47;;
305;SDS011;137;48.578;9.180;2022-08-27T07:22:49;30.10;;;27.10;;
305;SDS011;137;48.578;9.180;2022-08-27T07:25:18;29.33;;;26.37;;
305;SDS011;137;48.578;9.180;2022-08-27T07:27:45;29.17;;;26.57;;
305;SDS011;137;48.578;9.180;2022-08-27T07:30:12;29.90;;;26.83;;
305;SDS011;137;48.578;9.180;2022-08-27T07:32:41;31.00;;;28.00;;
305;SDS011;137;48.578;9.180;2022-08-27T07:35:08;30.20;;;27.20;;
305;SDS011;137;48.578;9.180;2022-08-27T07:37:35;31.07;;;28.07;;
305;SDS011;137;48.578;9.180;2022-08-27T07:40:05;32.40;;;26.10;;
305;SDS011;137;48.578;9.180;2022-08-27T07:42:34;31.83;;;28.73;;
305;SDS011;137;48.578;9.180;2022-08-27T07:45:19;30.73;;;27.80;;
305;SDS011;137;48.578;9.180;2022-08-27T07:47:46;26.40;;;23.80;;
305;SDS011;137;48.578;9.180;2022-08-27T07:50:14;32.00;;;28.60;;
305;SDS011;137;48.578;9.180;2022-08-27T07:52:41;28.90;;;25.20;;
305;SDS011;137;48.578;9.180;2022-08-27T07:55:10;30.20;;;27.17;;
305;SDS011;137;48.578;9.180;2022-08-27T07:57:37;35.37;;;27.77;;
305;SDS011;137;48.578;9.180;2022-08-27T08:00:06;30.00;;;27.30;;
305;SDS011;137;48.578;9.180;2022-08-27T08:02:35;28.83;;;25.77;;
305;SDS011;137;48.578;9.180;2022-08-27T08:05:02;28.50;;;25.60;;
305;SDS011;137;48.578;9.180;2022-08-27T08:07:30;30.27;;;27.03;;
305;SDS011;137;48.578;9.180;2022-08-27T08:10:02;27.27;;;24.67;;
305;SDS011;137;48.578;9.180;2022-08-27T08:12:31;28.40;;;25.80;;
305;SDS011;137;48.578;9.180;2022-08-27T08:15:00;28.17;;;25.20;;
305;SDS011;137;48.578;9.180;2022-08-27T08:17:27;29.67;;;26.57;;
305;SDS011;137;48.578;9.180;2022-08-27T08:19:55;29.43;;;26.30;;
305;SDS011;137;48.578;9.180;2022-08-27T08:22:22;28.13;;;25.33;;
305;SDS011;137;48.578;9.180;2022-08-27T08:24:48;27.20;;;24.37;;
305;SDS011;137;48.578;9.180;2022-08-27T08:27:15;31.17;;;25.50;;
305;SDS011;137;48.578;9.180;2022-08-27T08:29:44;29.17;;;26.37;;
305;SDS011;137;48.578;9.180;2022-08-27T08:32:12;30.03;;;27.03;;
305;SDS011;137;48.578;9.180;2022-08-27T08:34:39;26.80;;;24.10;;
305;SDS011;137;48.578;9.180;2022-08-27T08:37:06;29.27;;;26.10;;
305;SDS011;137;48.578;9.180;2022-08-27T08:39:33;29.53;;;26.40;;
305;SDS011;137;48.578;9.180;2022-08-27T08:42:03;27.47;;;24.70;;
305;SDS011;137;48.578;9.180;2022-08-27T08:44:33;27.67;;;24.50;;
305;SDS011;137;48.578;9.180;2022-08-27T08:47:05;36.37;;;28.23;;
305;SDS011;137;48.578;9.180;2022-08-27T08:49:40;28.87;;;25.83;;
305;SDS011;137;48.578;9.180;2022-08-27T08:52:15;27.53;;;24.83;;
305;SDS011;137;48.578;9.180;2022-08-27T08:54:50;29.93;;;26.67;;
305;SDS011;137;48.578;9.180;2022-08-27T08:57:22;28.93;;;26.07;;
305;SDS011;137;48.578;9.180;2022-08-27T08:59:53;32.17;;;25.63;;
305;SDS011;137;48.578;9.180;2022-08-27T09:02:36;30.27;;;27.17;;
305;SDS011;137;48.578;9.180;2022-08-27T09:05:03;30.70;;;26.43;;
305;SDS011;137;48.578;9.180;2022-08-27T09:07:33;29.27;;;26.17;;
305;SDS011;137;48.578;9.180;2022-08-27T09:10:09;27.50;;;24.57;;
305;SDS011;137;48.578;9.180;2022-08-27T09:12:40;27.13;;;24.63;;
305;SDS011;137;48.578;9.180;2022-08-27T09:15:08;27.10;;;24.50;;
305;SDS011;137;48.578;9.180;2022-08-27T09:17:40;27.53;;;25.00;;
305;SDS011;137;48.578;9.180;2022-08-27T09:20:08;29.07;;;26.27;;
305;SDS011;137;48.578;9.180;2022-08-27T09:22:39;27.93;;;25.20;;
305;SDS011;137;48.578;9.180;2022-08-27T09:25:17;27.07;;;24.03;;
305;SDS011;137;48.578;9.180;2022-08-27T09:27:47;26.93;;;23.93;;
305;SDS011;137;48.578;9.180;2022-08-27T09:30:17;27.60;;;24.90;;
305;SDS011;137;48.578;9.180;2022-08-27T09:32:53;26.73;;;24.27;;
305;SDS011;137;48.578;9.180;2022-08-27T09:35:22;27.03;;;24.27;;
305;SDS011;137;48.578;9.180;2022-08-27T09:37:51;24.40;;;21.80;;
305;SDS011;137;48.578;9.180;2022-08-27T09:40:22;29.40;;;26.63;;
305;SDS011;137;48.578;9.180;2022-08-27T09:42:57;28.77;;;26.00;;
305;SDS011;137;48.578;9.180;2022-08-27T09:45:30;25.57;;;23.17;;
305;SDS011;137;48.578;9.180;2022-08-27T09:48:03;27.10;;;24.27;;
305;SDS011;137;48.578;9.180;2022-08-27T09:50:34;29.70;;;26.80;;
305;SDS011;137;48.578;9.180;2022-08-27T09:53:03;29.90;;;26.70;;
305;SDS011;137;48.578;9.180;2022-08-27T09:55:42;30.60;;;27.57;;
305;SDS011;137;48.578;9.180;2022-08-27T09:58:15;37.30;;;29.27;;
305;SDS011;137;48.578;9.180;2022-08-27T10:00:45;36.97;;;30.43;;
305;SDS011;137;48.578;9.180;2022-08-27T10:03:34;35.83;;;32.23;;
305;SDS011;137;48.578;9.180;2022-08-27T10:06:01;34.33;;;29.77;;
305;SDS011;137;48.578;9.180;2022-08-27T10:08:29;35.47;;;29.57;;
305;SDS011;137;48.578;9.180;2022-08-27T10:11:03;35.40;;;28.83;;
305;SDS011;137;48.578;9.180;2022-08-27T10:13:38;34.67;;;30.97;;
305;SDS011;137;48.578;9.180;2022-08-27T10:16:19;31.73;;;28.40;;
305;SDS011;137;48.578;9.180;2022-08-27T10:19:00;32.20;;;28.97;;
305;SDS011;137;48.578;9.180;2022-08-27T10:21:40;34.43;;;29.40;;
305;SDS011;137;48.578;9.180;2022-08-27T10:24:15;32.67;;;29.37;;
305;SDS011;137;48.578;9.180;2022-08-27T10:26:50;29.53;;;26.37;;
305;SDS011;137;48.578;9.180;2022-08-27T10:29:25;27.93;;;24.57;;
305;SDS011;137;48.578;9.180;2022-08-27T10:32:02;26.47;;;23.67;;
305;SDS011;137;48.578;9.180;2022-08-27T10:34:43;29.60;;;26.63;;
305;SDS011;137;48.578;9.180;2022-08-27T10:37:20;27.27;;;24.30;;
305;SDS011;137;48.578;9.180;2022-08-27T10:39:57;25.50;;;22.87;;
305;SDS011;137;48.578;9.180;2022-08-27T10:42:33;23.90;;;21.33;;
305;SDS011;137;48.578;9.180;2022-08-27T10:45:10;25.77;;;23.27;;
305;SDS011;137;48.578;9.180;2022-08-27T10:47:47;23.60;;;21.20;;
305;SDS011;137;48.578;9.180;2022-08-27T10:50:27;23.47;;;21.20;;
305;SDS011;137;48.578;9.180;2022-08-27T10:53:03;24.97;;;22.57;;
305;SDS011;137;48.578;9.180;2022-08-27T10:55:36;21.43;;;19.43;;
305;SDS011;137;48.578;9.180;2022-08-27T10:58:12;19.50;;;17.60;;
305;SDS011;137;48.578;9.180;2022-08-27T11:00:44;22.07;;;19.87;;
305;SDS011;137;48.578;9.180;2022-08-27T11:03:17;20.27;;;18.30;;
305;SDS011;137;48.578;9.180;2022-08-27T11:11:51;20.80;;;18.90;;
305;SDS011;137;48.578;9.180;2022-08-27T11:14:24;18.10;;;16.43;;
305;SDS011;137;48.578;9.180;2022-08-27T11:16:55;17.67;;;15.80;;
305;SDS011;137;48.578;9.180;2022-08-27T11:19:29;18.60;;;16.90;;
305;SDS011;137;48.578;9.180;2022-08-27T11:22:09;19.37;;;17.47;;
305;SDS011;137;48.578;9.180;2022-08-27T11:24:43;17.80;;;16.00;;
305;SDS011;137;48.578;9.180;2022-08-27T11:27:18;19.43;;;17.63;;
305;SDS011;137;48.578;9.180;2022-08-27T11:29:50;19.43;;;17.73;;
305;SDS011;137;48.578;9.180;2022-08-27T11:32:24;14.63;;;13.20;;
305;SDS011;137;48.578;9.180;2022-08-27T11:34:57;12.70;;;11.70;;
305;SDS011;137;48.578;9.180;2022-08-27T11:37:32;12.20;;;11.20;;
305;SDS011;137;48.578;9.180;2022-08-27T11:40:16;13.33;;;12.13;;
305;SDS011;137;48.578;9.180;2022-08-27T11:42:59;13.30;;;12.10;;
305;SDS011;137;48.578;9.180;2022-08-27T11:45:30;13.17;;;11.97;;
305;SDS011;137;48.578;9.180;2022-08-27T11:48:12;15.10;;;13.80;;
305;SDS011;137;48.578;9.180;2022-08-27T11:50:50;12.27;;;11.07;;
305;SDS011;137;48.578;9.180;2022-08-27T11:53:22;15.60;;;14.00;;
305;SDS011;137;48.578;9.180;2022-08-27T11:56:08;14.47;;;13.20;;
305;SDS011;137;48.578;9.180;2022-08-27T11:58:39;17.13;;;13.50;;
305;SDS011;137;48.578;9.180;2022-08-27T12:01:13;13.57;;;12.33;;
305;SDS011;137;48.578;9.180;2022-08-27T12:03:41;12.40;;;11.30;;
305;SDS011;137;48.578;9.180;2022-08-27T12:06:19;13.70;;;12.50;;
305;SDS011;137;48.578;9.180;2022-08-27T12:08:48;15.00;;;13.40;;
305;SDS011;137;48.578;9.180;2022-08-27T12:14:11;13.37;;;11.97;;
305;SDS011;137;48.578;9.180;2022-08-27T12:16:48;14.43;;;13.10;;
305;SDS011;137;48.578;9.180;2022-08-27T12:19:25;15.43;;;14.17;;
305;SDS011;137;48.578;9.180;2022-08-27T12:22:12;14.00;;;12.77;;
305;SDS011;137;48.578;9.180;2022-08-27T12:24:48;15.50;;;14.03;;
305;SDS011;137;48.578;9.180;2022-08-27T12:30:17;15.37;;;13.87;;
305;SDS011;137;48.578;9.180;2022-08-27T12:32:49;18.20;;;16.33;;
305;SDS011;137;48.578;9.180;2022-08-27T12:35:19;17.83;;;16.13;;
305;SDS011;137;48.578;9.180;2022-08-27T12:38:06;19.10;;;17.40;;
305;SDS011;137;48.578;9.180;2022-08-27T12:40:39;19.00;;;16.57;;
305;SDS011;137;48.578;9.180;2022-08-27T12:45:58;20.07;;;18.20;;
305;SDS011;137;48.578;9.180;2022-08-27T12:48:27;17.70;;;16.10;;
305;SDS011;137;48.578;9.180;2022-08-27T12:51:00;18.10;;;16.47;;
305;SDS011;137;48.578;9.180;2022-08-27T12:53:39;18.40;;;16.80;;
305;SDS011;137;48.578;9.180;2022-08-27T12:56:21;16.60;;;15.10;;
305;SDS011;137;48.578;9.180;2022-08-27T12:59:13;18.57;;;16.97;;
305;SDS011;137;48.578;9.180;2022-08-27T13:02:12;17.70;;;15.90;;
305;SDS011;137;48.578;9.180;2022-08-27T13:04:48;16.93;;;15.33;;
305;SDS011;137;48.578;9.180;2022-08-27T13:07:24;18.03;;;16.53;;
305;SDS011;137;48.578;9.180;2022-08-27T13:09:51;18.07;;;16.17;;
305;SDS011;137;48.578;9.180;2022-08-27T13:12:18;18.80;;;17.20;;
305;SDS011;137;48.578;9.180;2022-08-27T13:14:46;18.53;;;16.90;;
305;SDS011;137;48.578;9.180;2022-08-27T13:17:15;21.43;;;19.13;;
305;SDS011;137;48.578;9.180;2022-08-27T13:19:45;19.20;;;17.40;;
305;SDS011;137;48.578;9.180;2022-08-27T13:22:19;17.10;;;15.40;;
305;SDS011;137;48.578;9.180;2022-08-27T13:24:48;16.50;;;14.90;;
305;SDS011;137;48.578;9.180;2022-08-27T13:27:21;16.43;;;15.03;;
305;SDS011;137;48.578;9.180;2022-08-27T13:29:51;12.43;;;11.27;;
305;SDS011;137;48.578;9.180;2022-08-27T13:32:18;11.37;;;10.30;;
305;SDS011;137;48.578;9.180;2022-08-27T13:34:45;11.50;;;10.50;;
305;SDS011;137;48.578;9.180;2022-08-27T13:37:20;9.40;;;8.60;;
305;SDS011;137;48.578;9.180;2022-08-27T13:39:51;10.33;;;9.53;;
305;SDS011;137;48.578;9.180;2022-08-27T13:42:18;9.77;;;8.77;;
305;SDS011;137;48.578;9.180;2022-08-27T13:44:46;7.83;;;7.23;;
305;SDS011;137;48.578;9.180;2022-08-27T13:47:15;5.77;;;5.27;;
305;SDS011;137;48.578;9.180;2022-08-27T13:49:45;4.10;;;3.80;;
305;SDS011;137;48.578;9.180;2022-08-27T13:52:17;5.40;;;5.00;;
305;SDS011;137;48.578;9.180;2022-08-27T13:54:50;5.57;;;5.07;;
305;SDS011;137;48.578;9.180;2022-08-27T13:57:24;4.80;;;4.47;;
305;SDS011;137;48.578;9.180;2022-08-27T13:59:54;5.87;;;5.37;;
305;SDS011;137;48.578;9.180;2022-08-27T14:02:25;5.23;;;4.73;;
305;SDS011;137;48.578;9.180;2022-08-27T14:05:04;4.30;;;4.00;;
305;SDS011;137;48.578;9.180;2022-08-27T14:07:36;4.93;;;4.47;;
305;SDS011;137;48.578;9.180;2022-08-27T14:10:07;4.07;;;3.77;;
305;SDS011;137;48.578;9.180;2022-08-27T14:12:54;5.13;;;4.63;;
305;SDS011;137;48.578;9.180;2022-08-27T14:15:27;4.77;;;4.37;;
305;SDS011;137;48.578;9.180;2022-08-27T14:17:58;5.07;;;4.77;;
305;SDS011;137;48.578;9.180;2022-08-27T14:20:25;5.10;;;4.70;;
305;SDS011;137;48.578;9.180;2022-08-27T14:22:52;5.40;;;4.90;;
305;SDS011;137;48.578;9.180;2022-08-27T14:25:20;5.57;;;5.17;;
305;SDS011;137;48.578;9.180;2022-08-27T14:27:48;5.67;;;5.10;;
305;SDS011;137;48.578;9.180;2022-08-27T14:30:17;5.50;;;5.10;;
305;SDS011;137;48.578;9.180;2022-08-27T14:32:46;6.00;;;5.50;;
305;SDS011;137;48.578;9.180;2022-08-27T14:35:15;5.90;;;5.50;;
305;SDS011;137;48.578;9.180;2022-08-27T14:37:43;5.30;;;4.90;;
305;SDS011;137;48.578;9.180;2022-08-27T14:40:11;5.07;;;4.50;;
305;SDS011;137;48.578;9.180;2022-08-27T14:42:39;6.17;;;5.67;;
305;SDS011;137;48.578;9.180;2022-08-27T14:45:06;6.03;;;5.50;;
305;SDS011;137;48.578;9.180;2022-08-27T14:47:34;5.60;;;5.20;;
305;SDS011;137;48.578;9.180;2022-08-27T14:50:02;6.03;;;5.43;;
305;SDS011;137;48.578;9.180;2022-08-27T14:52:33;5.57;;;5.10;;
305;SDS011;137;48.578;9.180;2022-08-27T14:55:00;5.47;;;4.97;;
305;SDS011;137;48.578;9.180;2022-08-27T14:57:26;5.50;;;5.10;;
305;SDS011;137;48.578;9.180;2022-08-27T14:59:53;4.60;;;4.30;;
305;SDS011;137;48.578;9.180;2022-08-27T15:02:20;4.40;;;4.10;;
305;SDS011;137;48.578;9.180;2022-08-27T15:04:47;5.50;;;5.00;;
305;SDS011;137;48.578;9.180;2022-08-27T15:07:14;5.63;;;5.13;;
305;SDS011;137;48.578;9.180;2022-08-27T15:09:45;5.80;;;4.70;;
305;SDS011;137;48.578;9.180;2022-08-27T15:12:12;6.17;;;4.77;;
305;SDS011;137;48.578;9.180;2022-08-27T15:14:39;5.67;;;5.20;;
305;SDS011;137;48.578;9.180;2022-08-27T15:17:08;4.50;;;4.20;;
305;SDS011;137;48.578;9.180;2022-08-27T15:19:35;5.80;;;5.30;;
305;SDS011;137;48.578;9.180;2022-08-27T15:22:03;4.90;;;4.50;;
305;SDS011;137;48.578;9.180;2022-08-27T15:24:32;4.57;;;4.17;;
305;SDS011;137;48.578;9.180;2022-08-27T15:27:06;6.03;;;5.53;;
305;SDS011;137;48.578;9.180;2022-08-27T15:29:33;5.83;;;5.33;;
305;SDS011;137;48.578;9.180;2022-08-27T15:32:00;5.50;;;5.00;;
305;SDS011;137;48.578;9.180;2022-08-27T15:34:27;5.10;;;4.70;;
305;SDS011;137;48.578;9.180;2022-08-27T15:36:54;6.20;;;5.63;;
305;SDS011;137;48.578;9.180;2022-08-27T15:39:21;5.20;;;4.80;;
305;SDS011;137;48.578;9.180;2022-08-27T15:41:48;4.70;;;4.40;;
305;SDS011;137;48.578;9.180;2022-08-27T15:44:17;5.50;;;5.00;;
305;SDS011;137;48.578;9.180;2022-08-27T15:46:44;5.97;;;5.33;;
305;SDS011;137;48.578;9.180;2022-08-27T15:49:12;6.50;;;5.97;;
305;SDS011;137;48.578;9.180;2022-08-27T15:51:40;6.63;;;6.03;;
305;SDS011;137;48.578;9.180;2022-08-27T15:54:08;6.77;;;6.17;;
305;SDS011;137;48.578;9.180;2022-08-27T15:56:35;5.40;;;5.00;;
305;SDS011;137;48.578;9.180;2022-08-27T15:59:02;6.70;;;6.17;;